Eurocargo Valencia — IBGZ — position and weather

sailwx.info

Track history (hours):
 
Tides and Currents Weather Stations Pressure Air Temp Water Temp Dewpoint Dewpoint Depression Visibility Wind Speed Wind Dir Waves Ship Positions

Eurocargo Valencia

Last reported at 2018-Jan-19 12:02 UTC. Time now 2018-Jan-20 01:47 UTC.
Position N 38°59' E 009°33'.

Length 196 m; draft 6.5 m.

Type: Ship (hazmat cat A). MMSI: 247579000.

Date/timePositionNaut miles runAvg speedWind from/ knotsBaromVisibWave heightAir tempDewpointWater temp
2018-Jan-19 12:02N 38°59' E 009°33'014.1
2018-Jan-19 12:00N 38°59' E 009°33'914.4
2018-Jan-19 11:21N 39°03' E 009°22'514.6
2018-Jan-19 10:59N 39°06' E 009°16'714.4
2018-Jan-19 10:31N 39°10' E 009°08'3 6.3
2018-Jan-19 09:58N 39°13' E 009°06'0 0.0
2018-Jan-19 09:28N 39°13' E 009°06'0 0.0
2018-Jan-19 08:58N 39°13' E 009°06'0 0.0
2018-Jan-19 08:28N 39°13' E 009°06'0 0.0
2018-Jan-19 07:58N 39°13' E 009°06'0 0.0
2018-Jan-19 07:28N 39°13' E 009°06'0 0.0
2018-Jan-19 06:58N 39°13' E 009°06'0 0.0
2018-Jan-19 06:28N 39°13' E 009°06'0 0.0
2018-Jan-19 05:58N 39°13' E 009°06'0 0.0
2018-Jan-19 05:28N 39°13' E 009°06'0 0.0
2018-Jan-19 04:58N 39°13' E 009°06'0 0.0
2018-Jan-19 04:28N 39°13' E 009°06'0 0.0
2018-Jan-19 03:58N 39°13' E 009°06'0 0.0
2018-Jan-19 03:28N 39°13' E 009°06'0 0.0
2018-Jan-19 02:59N 39°13' E 009°06'2 4.5
2018-Jan-19 02:29N 39°11' E 009°07'713.4
2018-Jan-19 01:58N 39°07' E 009°15'613.5
2018-Jan-19 01:30N 39°03' E 009°22'  
2018-Jan-12 11:47N 38°59' E 009°33'416.2
2018-Jan-12 11:30N 39°01' E 009°28'917.1
2018-Jan-12 11:00N 39°05' E 009°18'916.6
2018-Jan-12 10:29N 39°09' E 009°08'4 6.6
2018-Jan-12 09:56N 39°13' E 009°06'0 0.0
2018-Jan-12 09:29N 39°13' E 009°06'0 0.0
2018-Jan-12 08:59N 39°13' E 009°06'0 0.0
2018-Jan-12 08:29N 39°13' E 009°06'0 0.0
2018-Jan-12 07:59N 39°13' E 009°06'0 0.0
2018-Jan-12 07:29N 39°13' E 009°06'0 0.0
2018-Jan-12 06:59N 39°13' E 009°06'0 0.0
2018-Jan-12 06:29N 39°13' E 009°06'0 0.0
2018-Jan-12 05:59N 39°13' E 009°06'0 0.0
2018-Jan-12 05:29N 39°13' E 009°06'0 0.0
2018-Jan-12 04:59N 39°13' E 009°06'0 0.0
2018-Jan-12 04:29N 39°13' E 009°06'0 0.0
2018-Jan-12 03:59N 39°13' E 009°06'0 0.0
2018-Jan-12 03:29N 39°13' E 009°06'2 3.7
2018-Jan-12 03:00N 39°11' E 009°07'713.4
2018-Jan-12 02:30N 39°07' E 009°14'714.1
2018-Jan-12 02:00N 39°03' E 009°22'714.1
2018-Jan-12 01:28N 38°60' E 009°30'24314.5
2018-Jan-11 08:41N 43°01' E 010°04'316.2
2018-Jan-11 08:30N 43°04' E 010°05'816.0
2018-Jan-11 08:00N 43°12' E 010°07'815.9
2018-Jan-11 07:30N 43°20' E 010°09'815.8
2018-Jan-11 07:00N 43°27' E 010°11'612.1
2018-Jan-11 06:30N 43°32' E 010°16'3 6.6
2018-Jan-11 06:00N 43°35' E 010°19'0 0.1
2018-Jan-11 05:30N 43°35' E 010°19'0 0.0
2018-Jan-11 05:00N 43°35' E 010°19'0 0.0
2018-Jan-11 04:30N 43°35' E 010°19'0 0.0
2018-Jan-11 04:00N 43°35' E 010°19'0 0.0
2018-Jan-11 03:30N 43°35' E 010°19'0 0.0
2018-Jan-11 02:54N 43°35' E 010°19'0 0.0
2018-Jan-11 02:30N 43°35' E 010°19'0 0.0
2018-Jan-11 02:00N 43°35' E 010°19'0 0.0
2018-Jan-11 01:27N 43°35' E 010°19'0 0.0
2018-Jan-11 01:00N 43°35' E 010°19'0 0.0
2018-Jan-11 00:30N 43°35' E 010°19'0 0.0
2018-Jan-11 00:00N 43°35' E 010°19'0 0.0
2018-Jan-10 23:30N 43°35' E 010°19'0 0.0
2018-Jan-10 23:00N 43°35' E 010°19'1 1.2
2018-Jan-10 22:31N 43°34' E 010°18'3 6.6
2018-Jan-10 22:00N 43°31' E 010°16'2 3.3
2018-Jan-10 21:31N 43°30' E 010°15'713.2
2018-Jan-10 21:01N 43°24' E 010°12'714.6
2018-Jan-10 20:30N 43°17' E 010°10'714.7
2018-Jan-10 20:01N 43°09' E 010°08'814.7
2018-Jan-10 19:28N 43°02' E 010°05'24414.7
2018-Jan-10 02:55N 38°60' E 009°33'614.2
2018-Jan-10 02:31N 39°00' E 009°26'815.2
2018-Jan-10 02:00N 39°05' E 009°18'815.0
2018-Jan-10 01:30N 39°09' E 009°10'5 9.5
2018-Jan-10 01:01N 39°13' E 009°06'0 0.0
2018-Jan-10 00:28N 39°13' E 009°06'0 0.0
2018-Jan-09 23:58N 39°13' E 009°06'0 0.0
2018-Jan-09 23:28N 39°13' E 009°06'0 0.0
2018-Jan-09 22:58N 39°13' E 009°06'0 0.0
2018-Jan-09 22:28N 39°13' E 009°06'0 0.0
2018-Jan-09 21:58N 39°13' E 009°06'0 0.0
2018-Jan-09 21:28N 39°13' E 009°06'0 0.4
2018-Jan-09 21:00N 39°12' E 009°06'2 3.1
2018-Jan-09 20:30N 39°11' E 009°07'4 7.9
2018-Jan-09 20:00N 39°08' E 009°10'714.5
2018-Jan-09 19:30N 39°05' E 009°19'814.2
2018-Jan-09 18:58N 39°01' E 009°27'  
Track history (hours):
 
Tides and Currents Weather Stations Pressure Air Temp Water Temp Dewpoint Dewpoint Depression Visibility Wind Speed Wind Dir Waves Ship Positions

Eurocargo Valencia

Last reported at 2018-Jan-19 12:02 UTC. Time now 2018-Jan-20 01:47 UTC.
Position N 38°59' E 009°33'.

Length 196 m; draft 6.5 m.

Type: Ship (hazmat cat A). MMSI: 247579000.

Date/timePositionNaut miles runAvg speedWind from/ knotsBaromVisibWave heightAir tempDewpointWater temp
2018-Jan-19 12:02N 38°59' E 009°33'014.1
2018-Jan-19 12:00N 38°59' E 009°33'914.4
2018-Jan-19 11:21N 39°03' E 009°22'514.6
2018-Jan-19 10:59N 39°06' E 009°16'714.4
2018-Jan-19 10:31N 39°10' E 009°08'3 6.3
2018-Jan-19 09:58N 39°13' E 009°06'0 0.0
2018-Jan-19 09:28N 39°13' E 009°06'0 0.0
2018-Jan-19 08:58N 39°13' E 009°06'0 0.0
2018-Jan-19 08:28N 39°13' E 009°06'0 0.0
2018-Jan-19 07:58N 39°13' E 009°06'0 0.0
2018-Jan-19 07:28N 39°13' E 009°06'0 0.0
2018-Jan-19 06:58N 39°13' E 009°06'0 0.0
2018-Jan-19 06:28N 39°13' E 009°06'0 0.0
2018-Jan-19 05:58N 39°13' E 009°06'0 0.0
2018-Jan-19 05:28N 39°13' E 009°06'0 0.0
2018-Jan-19 04:58N 39°13' E 009°06'0 0.0
2018-Jan-19 04:28N 39°13' E 009°06'0 0.0
2018-Jan-19 03:58N 39°13' E 009°06'0 0.0
2018-Jan-19 03:28N 39°13' E 009°06'0 0.0
2018-Jan-19 02:59N 39°13' E 009°06'2 4.5
2018-Jan-19 02:29N 39°11' E 009°07'713.4
2018-Jan-19 01:58N 39°07' E 009°15'613.5
2018-Jan-19 01:30N 39°03' E 009°22'  
2018-Jan-12 11:47N 38°59' E 009°33'416.2
2018-Jan-12 11:30N 39°01' E 009°28'917.1
2018-Jan-12 11:00N 39°05' E 009°18'916.6
2018-Jan-12 10:29N 39°09' E 009°08'4 6.6
2018-Jan-12 09:56N 39°13' E 009°06'0 0.0
2018-Jan-12 09:29N 39°13' E 009°06'0 0.0
2018-Jan-12 08:59N 39°13' E 009°06'0 0.0
2018-Jan-12 08:29N 39°13' E 009°06'0 0.0
2018-Jan-12 07:59N 39°13' E 009°06'0 0.0
2018-Jan-12 07:29N 39°13' E 009°06'0 0.0
2018-Jan-12 06:59N 39°13' E 009°06'0 0.0
2018-Jan-12 06:29N 39°13' E 009°06'0 0.0
2018-Jan-12 05:59N 39°13' E 009°06'0 0.0
2018-Jan-12 05:29N 39°13' E 009°06'0 0.0
2018-Jan-12 04:59N 39°13' E 009°06'0 0.0
2018-Jan-12 04:29N 39°13' E 009°06'0 0.0
2018-Jan-12 03:59N 39°13' E 009°06'0 0.0
2018-Jan-12 03:29N 39°13' E 009°06'2 3.7
2018-Jan-12 03:00N 39°11' E 009°07'713.4
2018-Jan-12 02:30N 39°07' E 009°14'714.1
2018-Jan-12 02:00N 39°03' E 009°22'714.1
2018-Jan-12 01:28N 38°60' E 009°30'24314.5
2018-Jan-11 08:41N 43°01' E 010°04'316.2
2018-Jan-11 08:30N 43°04' E 010°05'816.0
2018-Jan-11 08:00N 43°12' E 010°07'815.9
2018-Jan-11 07:30N 43°20' E 010°09'815.8
2018-Jan-11 07:00N 43°27' E 010°11'612.1
2018-Jan-11 06:30N 43°32' E 010°16'3 6.6
2018-Jan-11 06:00N 43°35' E 010°19'0 0.1
2018-Jan-11 05:30N 43°35' E 010°19'0 0.0
2018-Jan-11 05:00N 43°35' E 010°19'0 0.0
2018-Jan-11 04:30N 43°35' E 010°19'0 0.0
2018-Jan-11 04:00N 43°35' E 010°19'0 0.0
2018-Jan-11 03:30N 43°35' E 010°19'0 0.0
2018-Jan-11 02:54N 43°35' E 010°19'0 0.0
2018-Jan-11 02:30N 43°35' E 010°19'0 0.0
2018-Jan-11 02:00N 43°35' E 010°19'0 0.0
2018-Jan-11 01:27N 43°35' E 010°19'0 0.0
2018-Jan-11 01:00N 43°35' E 010°19'0 0.0
2018-Jan-11 00:30N 43°35' E 010°19'0 0.0
2018-Jan-11 00:00N 43°35' E 010°19'0 0.0
2018-Jan-10 23:30N 43°35' E 010°19'0 0.0
2018-Jan-10 23:00N 43°35' E 010°19'1 1.2
2018-Jan-10 22:31N 43°34' E 010°18'3 6.6
2018-Jan-10 22:00N 43°31' E 010°16'2 3.3
2018-Jan-10 21:31N 43°30' E 010°15'713.2
2018-Jan-10 21:01N 43°24' E 010°12'714.6
2018-Jan-10 20:30N 43°17' E 010°10'714.7
2018-Jan-10 20:01N 43°09' E 010°08'814.7
2018-Jan-10 19:28N 43°02' E 010°05'24414.7
2018-Jan-10 02:55N 38°60' E 009°33'614.2
2018-Jan-10 02:31N 39°00' E 009°26'815.2
2018-Jan-10 02:00N 39°05' E 009°18'815.0
2018-Jan-10 01:30N 39°09' E 009°10'5 9.5
2018-Jan-10 01:01N 39°13' E 009°06'0 0.0
2018-Jan-10 00:28N 39°13' E 009°06'0 0.0
2018-Jan-09 23:58N 39°13' E 009°06'0 0.0
2018-Jan-09 23:28N 39°13' E 009°06'0 0.0
2018-Jan-09 22:58N 39°13' E 009°06'0 0.0
2018-Jan-09 22:28N 39°13' E 009°06'0 0.0
2018-Jan-09 21:58N 39°13' E 009°06'0 0.0
2018-Jan-09 21:28N 39°13' E 009°06'0 0.4
2018-Jan-09 21:00N 39°12' E 009°06'2 3.1
2018-Jan-09 20:30N 39°11' E 009°07'4 7.9
2018-Jan-09 20:00N 39°08' E 009°10'714.5
2018-Jan-09 19:30N 39°05' E 009°19'814.2
2018-Jan-09 18:58N 39°01' E 009°27'  

Dump ship's entire track history